Casper, WY

9:57 AM MST on December 26, 2014 (GMT -0700)
Casper Mountain Foothills | Change Station
CLOSE
Current Station
Personal Weather Station
Location: Casper, WY
Elevation: 5334 ft
Nearby Weather Stations

Elev 5334 ft 42.83 °N, 106.31 °W | Updated 59 seconds ago

Snow
Snow
18.1 °F
Feels Like 18 °F
N
0.0
Wind Variable Wind from East
Gusts 0.0 mph

Today
High -- | Low -- °F
--% Chance of Precip.
Yesterday
High -- | Low -- °F
Precip. -- in
7:34 AM 4:37 PM
Waxing Crescent, 27% visible
Pressure 30.17 in
Visibility 5.0 miles
Clouds Few 3400 ft
Mostly Cloudy 4300 ft
Overcast 5500 ft
Windchill 18 °F
Dew Point 12 °F
Humidity 77%
Rainfall 0.00 in
Snow Depth Not available.
UV 0 out of 12
Pollen .10 out of 12
Air Quality Not available.
Flu Activity Not available.
METAR KCPR 261653Z 02005KT 5SM HZ FEW034 BKN043 OVC055 M09/M12 A2999 RMK AO2 SNE1554B10E29 SLP215 P0000 T10941122

More Conditions Fewer Conditions

Pressure 30.17 in
Visibility 5.0 miles
Clouds Few 3400 ft
Mostly Cloudy 4300 ft
Overcast 5500 ft
Windchill 18 °F
Dew Point 12 °F
Humidity 77%
Rainfall 0.00 in
Snow Depth Not available.
UV 0 out of 12
Pollen .10 out of 12
Air Quality Not available.
Flu Activity Not available.
METAR KCPR 261653Z 02005KT 5SM HZ FEW034 BKN043 OVC055 M09/M12 A2999 RMK AO2 SNE1554B10E29 SLP215 P0000 T10941122

More Conditions Fewer Conditions

10-Day Weather Forecast

Almanac

Astronomy

Dec. 26, 2014 Rise Set
Actual Time
Civil Twilight
Nautical Twilight
Astronomical Twilight
Moon
Length of Visible Light
Length of Day
Tomorrow will be .
, % of the Moon is Illuminated

Today's Extremes

State Highs State Lows

Community

WunderPhotos

Upload Photos

1,780,632 photos uploaded!

WunderBlogs® & News

Nearby

Air Quality

  Air Quality AQ Index Pollutant
Not available.

Snow Depth

Station Depth Elevation

Earthquake Activity

City Distance Mag. Time & Date
Minimum magnitude displayed is 2.5.

Coastal Water Temperatures

Place Temperature

Nearby Weather Stations